Terminal Aerodrome Forecast
Issued by NWS Mt. Holly, NJ

Home | Current Version | Previous Version | Text Only | Print | Product List | Glossary On
Versions: 1 2 3 4 5 6 7 8 9 10 11 12 13 14 15 16 17 18 19 20
000
FTAK31 PANC 221402 AAA
TAFABE
TAF AMD
PABE 221402Z 2214/2312 23015KT 3SM -SN BR OVC004
      TEMPO 2214/2218 1SM BR OVC002
     FM221800 23018G25KT P6SM -SN BKN008
     FM230300 24012KT P6SM VCFG OVC005=

USA.gov is the U.S. government's official web portal to all federal, state and local government web resources and services.